createdAt,value
2023-02-25T00:00:51.553Z,3.78
2023-02-25T00:02:03.499Z,3.78
2023-02-25T00:02:52.648Z,3.77
2023-02-25T00:03:51.815Z,3.76
2023-02-25T00:04:51.511Z,3.76
2023-02-25T00:05:51.506Z,3.73
2023-02-25T00:06:51.494Z,3.73
2023-02-25T00:07:51.492Z,3.73
2023-02-25T00:08:51.478Z,3.70
2023-02-25T00:09:51.455Z,3.69
2023-02-25T00:10:51.442Z,3.66
2023-02-25T00:11:51.454Z,3.66
2023-02-25T00:12:51.495Z,3.69
2023-02-25T00:13:51.403Z,3.66
2023-02-25T00:14:51.403Z,3.66
2023-02-25T00:15:51.386Z,3.65
2023-02-25T00:16:51.454Z,3.63
2023-02-25T00:17:51.397Z,3.65
2023-02-25T00:18:51.396Z,3.65
2023-02-25T00:19:51.355Z,3.65
2023-02-25T00:20:51.338Z,3.65
2023-02-25T00:21:51.334Z,3.65
2023-02-25T00:22:51.371Z,3.63
2023-02-25T00:23:51.327Z,3.66
2023-02-25T00:24:51.282Z,3.66
2023-02-25T00:25:51.283Z,3.66
2023-02-25T00:26:51.263Z,3.66
2023-02-25T00:27:51.270Z,3.66
2023-02-25T00:28:51.275Z,3.65
2023-02-25T00:29:51.244Z,3.63
2023-02-25T00:30:51.380Z,3.65
2023-02-25T00:31:51.406Z,3.63
2023-02-25T00:32:51.229Z,3.63
2023-02-25T00:33:51.204Z,3.63
2023-02-25T00:34:51.164Z,3.62
2023-02-25T00:35:51.205Z,3.62
2023-02-25T00:36:51.225Z,3.62
2023-02-25T00:37:51.161Z,3.60
2023-02-25T00:38:51.175Z,3.59
2023-02-25T00:39:51.125Z,3.58
2023-02-25T00:40:51.116Z,3.56
2023-02-25T00:41:51.108Z,3.56
2023-02-25T00:42:51.407Z,3.55
2023-02-25T00:43:51.161Z,3.55
2023-02-25T00:44:51.119Z,3.51
2023-02-25T00:45:51.139Z,3.50
2023-02-25T00:46:51.118Z,3.50
2023-02-25T00:47:51.980Z,3.50
2023-02-25T00:48:51.028Z,3.47
2023-02-25T00:49:51.086Z,3.47
2023-02-25T00:50:51.070Z,3.47
2023-02-25T00:51:51.132Z,3.45
2023-02-25T00:52:50.996Z,3.45
2023-02-25T00:53:51.044Z,3.45
2023-02-25T00:54:50.978Z,3.44
2023-02-25T00:55:50.951Z,3.44
2023-02-25T00:56:50.944Z,3.42
2023-02-25T00:57:50.918Z,3.42
2023-02-25T00:58:50.914Z,3.41
2023-02-25T00:59:50.919Z,3.40
2023-02-25T01:00:52.001Z,3.42
2023-02-25T01:01:50.905Z,3.44
2023-02-25T01:02:50.894Z,3.41
2023-02-25T01:03:50.870Z,3.42
2023-02-25T01:04:50.895Z,3.42
2023-02-25T01:05:50.878Z,3.42
2023-02-25T01:06:50.832Z,3.41
2023-02-25T01:07:50.823Z,3.42
2023-02-25T01:08:50.812Z,3.42
2023-02-25T01:09:50.794Z,3.41
2023-02-25T01:10:50.786Z,3.40
2023-02-25T01:11:50.798Z,3.41
2023-02-25T01:12:50.760Z,3.42
2023-02-25T01:13:50.817Z,3.42
2023-02-25T01:14:50.757Z,3.41
2023-02-25T01:15:50.752Z,3.42
2023-02-25T01:16:51.035Z,3.44
2023-02-25T01:17:50.712Z,3.45
2023-02-25T01:18:50.713Z,3.44
2023-02-25T01:19:50.718Z,3.45
2023-02-25T01:20:50.810Z,3.45
2023-02-25T01:21:50.699Z,3.47
2023-02-25T01:22:50.669Z,3.47
2023-02-25T01:23:50.630Z,3.47
2023-02-25T01:24:50.639Z,3.45
2023-02-25T01:25:50.620Z,3.45
2023-02-25T01:26:50.606Z,3.47
2023-02-25T01:27:50.598Z,3.47
2023-02-25T01:28:50.614Z,3.45
2023-02-25T01:29:50.566Z,3.47
2023-02-25T01:30:50.625Z,3.45
2023-02-25T01:31:50.733Z,3.45
2023-02-25T01:32:50.618Z,3.47
2023-02-25T01:33:50.538Z,3.44
2023-02-25T01:34:50.519Z,3.47
2023-02-25T01:35:50.506Z,3.45
2023-02-25T01:36:50.498Z,3.47
2023-02-25T01:37:50.479Z,3.47
2023-02-25T01:38:50.479Z,3.44
2023-02-25T01:39:50.456Z,3.44
2023-02-25T01:40:50.457Z,3.45
2023-02-25T01:41:50.441Z,3.47
2023-02-25T01:42:50.441Z,3.47
2023-02-25T01:43:50.426Z,3.48
2023-02-25T01:44:50.436Z,3.45
2023-02-25T01:45:50.402Z,3.45
2023-02-25T01:46:50.527Z,3.48
2023-02-25T01:47:50.385Z,3.50
2023-02-25T01:48:50.372Z,3.48
2023-02-25T01:49:50.359Z,3.50
2023-02-25T01:50:50.350Z,3.51
2023-02-25T01:51:50.323Z,3.50
2023-02-25T01:52:50.320Z,3.51
2023-02-25T01:53:50.300Z,3.53
2023-02-25T01:54:50.304Z,3.53
2023-02-25T01:55:50.311Z,3.55
2023-02-25T01:56:50.285Z,3.55
2023-02-25T01:57:50.260Z,3.56
2023-02-25T01:58:50.260Z,3.56
2023-02-25T01:59:50.242Z,3.56
2023-02-25T02:00:50.266Z,3.56
2023-02-25T02:01:50.253Z,3.56
2023-02-25T02:02:50.295Z,3.58
2023-02-25T02:03:50.195Z,3.58
2023-02-25T02:04:50.277Z,3.56
2023-02-25T02:05:50.187Z,3.56
2023-02-25T02:06:50.175Z,3.58
2023-02-25T02:07:50.155Z,3.56
2023-02-25T02:08:50.440Z,3.58
2023-02-25T02:09:50.145Z,3.56
2023-02-25T02:10:50.144Z,3.56
2023-02-25T02:11:50.265Z,3.58
2023-02-25T02:12:50.100Z,3.58
2023-02-25T02:13:50.103Z,3.56
2023-02-25T02:14:50.104Z,3.55
2023-02-25T02:15:50.181Z,3.53
2023-02-25T02:16:50.058Z,3.55
2023-02-25T02:17:50.046Z,3.55
2023-02-25T02:18:50.053Z,3.55
2023-02-25T02:19:50.031Z,3.53
2023-02-25T02:20:50.024Z,3.50
2023-02-25T02:21:50.002Z,3.50
2023-02-25T02:22:50.002Z,3.50
2023-02-25T02:23:49.987Z,3.48
2023-02-25T02:24:49.968Z,3.48
2023-02-25T02:25:50.004Z,3.47
2023-02-25T02:26:49.995Z,3.44
2023-02-25T02:27:49.933Z,3.45
2023-02-25T02:28:49.934Z,3.45
2023-02-25T02:29:49.914Z,3.44
2023-02-25T02:30:50.074Z,3.45
2023-02-25T02:31:49.987Z,3.41
2023-02-25T02:32:49.882Z,3.41
2023-02-25T02:33:49.876Z,3.40
2023-02-25T02:34:49.871Z,3.41
2023-02-25T02:35:49.870Z,3.37
2023-02-25T02:36:49.862Z,3.37
2023-02-25T02:37:49.823Z,3.40
2023-02-25T02:38:49.850Z,3.40
2023-02-25T02:39:49.802Z,3.40
2023-02-25T02:40:49.810Z,3.40
2023-02-25T02:41:49.770Z,3.40
2023-02-25T02:42:50.030Z,3.37
2023-02-25T02:43:49.751Z,3.36
2023-02-25T02:44:49.754Z,3.36
2023-02-25T02:45:49.800Z,3.37
2023-02-25T02:46:49.736Z,3.37
2023-02-25T02:47:49.712Z,3.36
2023-02-25T02:48:49.709Z,3.34
2023-02-25T02:49:49.702Z,3.34
2023-02-25T02:50:49.707Z,3.36
2023-02-25T02:51:49.671Z,3.34
2023-02-25T02:52:49.654Z,3.34
2023-02-25T02:53:49.666Z,3.34
2023-02-25T02:54:49.633Z,3.36
2023-02-25T02:55:49.733Z,3.36
2023-02-25T02:56:49.613Z,3.36
2023-02-25T02:57:49.598Z,3.36
2023-02-25T02:58:49.594Z,3.36
2023-02-25T02:59:49.580Z,3.36
2023-02-25T03:00:50.062Z,3.36
2023-02-25T03:01:49.579Z,3.37
2023-02-25T03:02:49.565Z,3.37
2023-02-25T03:03:49.577Z,3.37
2023-02-25T03:04:49.533Z,3.36
2023-02-25T03:05:49.521Z,3.37
2023-02-25T03:06:49.553Z,3.40
2023-02-25T03:07:49.484Z,3.36
2023-02-25T03:08:49.485Z,3.37
2023-02-25T03:09:49.456Z,3.37
2023-02-25T03:10:49.459Z,3.37
2023-02-25T03:11:49.443Z,3.40
2023-02-25T03:12:49.459Z,3.40
2023-02-25T03:13:49.429Z,3.40
2023-02-25T03:14:49.442Z,3.41
2023-02-25T03:15:49.414Z,3.40
2023-02-25T03:16:49.609Z,3.40
2023-02-25T03:17:49.371Z,3.40
2023-02-25T03:18:49.406Z,3.40
2023-02-25T03:19:49.389Z,3.40
2023-02-25T03:20:49.354Z,3.40
2023-02-25T03:21:49.337Z,3.41
2023-02-25T03:22:49.328Z,3.42
2023-02-25T03:23:49.333Z,3.42
2023-02-25T03:24:49.324Z,3.41
2023-02-25T03:25:49.289Z,3.41
2023-02-25T03:26:49.285Z,3.41
2023-02-25T03:27:49.278Z,3.41
2023-02-25T03:28:49.271Z,3.41
2023-02-25T03:29:49.249Z,3.41
2023-02-25T03:30:49.658Z,3.41
2023-02-25T03:31:49.328Z,3.42
2023-02-25T03:32:49.322Z,3.42
2023-02-25T03:33:49.207Z,3.41
2023-02-25T03:34:49.200Z,3.42
2023-02-25T03:35:49.453Z,3.42
2023-02-25T03:36:49.185Z,3.44
2023-02-25T03:37:49.166Z,3.42
2023-02-25T03:38:49.160Z,3.45
2023-02-25T03:39:49.143Z,3.42
2023-02-25T03:40:49.181Z,3.42
2023-02-25T03:41:49.129Z,3.41
2023-02-25T03:42:49.111Z,3.41
2023-02-25T03:43:49.098Z,3.41
2023-02-25T03:44:49.102Z,3.40
2023-02-25T03:45:49.115Z,3.40
2023-02-25T03:46:49.094Z,3.36
2023-02-25T03:47:49.095Z,3.36
2023-02-25T03:48:49.055Z,3.36
2023-02-25T03:49:49.031Z,3.36
2023-02-25T03:50:49.047Z,3.36
2023-02-25T03:51:49.013Z,3.34
2023-02-25T03:52:49.051Z,3.34
2023-02-25T03:53:48.980Z,3.31
2023-02-25T03:54:48.990Z,3.29
2023-02-25T03:55:48.955Z,3.29
2023-02-25T03:56:48.958Z,3.31
2023-02-25T03:57:48.960Z,3.28
2023-02-25T03:58:48.949Z,3.26
2023-02-25T03:59:48.910Z,3.26
2023-02-25T04:00:48.917Z,3.26
2023-02-25T04:01:48.893Z,3.25
2023-02-25T04:02:48.990Z,3.26
2023-02-25T04:03:48.882Z,3.26
2023-02-25T04:04:48.972Z,3.25
2023-02-25T04:05:48.862Z,3.25
2023-02-25T04:06:48.848Z,3.26
2023-02-25T04:07:48.816Z,3.26
2023-02-25T04:08:48.830Z,3.23
2023-02-25T04:09:48.831Z,3.25
2023-02-25T04:10:48.826Z,3.25
2023-02-25T04:11:48.771Z,3.23
2023-02-25T04:12:48.792Z,3.25
2023-02-25T04:13:48.768Z,3.23
2023-02-25T04:14:48.764Z,3.23
2023-02-25T04:15:48.787Z,3.25
2023-02-25T04:16:48.732Z,3.22
2023-02-25T04:17:48.716Z,3.23
2023-02-25T04:18:48.739Z,3.22
2023-02-25T04:19:48.679Z,3.22
2023-02-25T04:20:49.431Z,3.22
2023-02-25T04:21:48.665Z,3.22
2023-02-25T04:22:48.686Z,3.21
2023-02-25T04:23:48.651Z,3.22
2023-02-25T04:24:48.660Z,3.22
2023-02-25T04:25:48.640Z,3.23
2023-02-25T04:26:48.628Z,3.22
2023-02-25T04:27:48.598Z,3.26
2023-02-25T04:28:48.593Z,3.26
2023-02-25T04:29:48.613Z,3.26
2023-02-25T04:30:48.668Z,3.26
2023-02-25T04:31:48.736Z,3.28
2023-02-25T04:32:48.647Z,3.28
2023-02-25T04:33:48.533Z,3.28
2023-02-25T04:34:48.561Z,3.28
2023-02-25T04:35:48.514Z,3.28
2023-02-25T04:36:48.509Z,3.29
2023-02-25T04:37:48.504Z,3.28
2023-02-25T04:38:48.498Z,3.29
2023-02-25T04:39:48.497Z,3.29
2023-02-25T04:40:48.489Z,3.31
2023-02-25T04:41:48.466Z,3.32
2023-02-25T04:42:48.464Z,3.32
2023-02-25T04:43:48.430Z,3.36
2023-02-25T04:44:48.427Z,3.36
2023-02-25T04:45:48.432Z,3.34
2023-02-25T04:46:48.460Z,3.34
2023-02-25T04:47:48.377Z,3.32
2023-02-25T04:48:48.369Z,3.31
2023-02-25T04:49:48.372Z,3.31
2023-02-25T04:50:48.376Z,3.28
2023-02-25T04:51:48.358Z,3.23
2023-02-25T04:52:48.341Z,3.23
2023-02-25T04:53:48.324Z,3.22
2023-02-25T04:54:48.312Z,3.22
2023-02-25T04:55:48.303Z,3.21
2023-02-25T04:56:48.302Z,3.23
2023-02-25T04:57:48.270Z,3.22
2023-02-25T04:58:48.275Z,3.23
2023-02-25T04:59:48.266Z,3.25
2023-02-25T05:00:48.243Z,3.25
2023-02-25T05:01:48.250Z,3.23
2023-02-25T05:02:48.210Z,3.25
2023-02-25T05:03:48.236Z,3.25
2023-02-25T05:04:48.232Z,3.25
2023-02-25T05:05:48.212Z,3.25
2023-02-25T05:06:48.191Z,3.26
2023-02-25T05:07:48.172Z,3.26
2023-02-25T05:08:48.245Z,3.26
2023-02-25T05:09:48.153Z,3.26
2023-02-25T05:10:48.128Z,3.25
2023-02-25T05:11:48.135Z,3.26
2023-02-25T05:12:48.126Z,3.26
2023-02-25T05:13:48.109Z,3.26
2023-02-25T05:14:48.095Z,3.26
2023-02-25T05:15:48.209Z,3.26
2023-02-25T05:16:48.065Z,3.29
2023-02-25T05:17:48.076Z,3.28
2023-02-25T05:18:48.044Z,3.28
2023-02-25T05:19:48.032Z,3.26
2023-02-25T05:20:48.028Z,3.28
2023-02-25T05:21:48.029Z,3.26
2023-02-25T05:22:47.996Z,3.28
2023-02-25T05:23:48.017Z,3.28
2023-02-25T05:24:47.976Z,3.28
2023-02-25T05:25:47.992Z,3.28
2023-02-25T05:26:47.954Z,3.26
2023-02-25T05:27:47.962Z,3.28
2023-02-25T05:28:48.044Z,3.26
2023-02-25T05:29:47.990Z,3.26
2023-02-25T05:30:47.926Z,3.22
2023-02-25T05:31:48.153Z,3.25
2023-02-25T05:32:47.988Z,3.25
2023-02-25T05:33:47.894Z,3.25
2023-02-25T05:34:47.875Z,3.25
2023-02-25T05:35:47.875Z,3.25
2023-02-25T05:36:47.835Z,3.23
2023-02-25T05:37:47.841Z,3.25
2023-02-25T05:38:47.819Z,3.22
2023-02-25T05:39:47.843Z,3.25
2023-02-25T05:40:47.794Z,3.23
2023-02-25T05:41:47.805Z,3.25
2023-02-25T05:42:47.778Z,3.26
2023-02-25T05:43:47.763Z,3.26
2023-02-25T05:44:47.756Z,3.26
2023-02-25T05:45:47.740Z,3.25
2023-02-25T05:46:47.816Z,3.26
2023-02-25T05:47:47.731Z,3.25
2023-02-25T05:48:47.711Z,3.25
2023-02-25T05:49:47.721Z,3.28
2023-02-25T05:50:47.691Z,3.28
2023-02-25T05:51:47.705Z,3.29
2023-02-25T05:52:47.660Z,3.29
2023-02-25T05:53:47.660Z,3.29
2023-02-25T05:54:47.631Z,3.28
2023-02-25T05:55:47.659Z,3.29
2023-02-25T05:56:47.631Z,3.31
2023-02-25T05:57:47.610Z,3.31
2023-02-25T05:58:47.599Z,3.31
2023-02-25T05:59:47.610Z,3.31
2023-02-25T06:00:47.588Z,3.34
2023-02-25T06:01:47.626Z,3.32
2023-02-25T06:02:47.591Z,3.32
2023-02-25T06:03:47.550Z,3.32
2023-02-25T06:04:47.552Z,3.36
2023-02-25T06:05:48.067Z,3.36
2023-02-25T06:06:47.497Z,3.36
2023-02-25T06:07:47.500Z,3.36
2023-02-25T06:08:47.562Z,3.36
2023-02-25T06:09:47.477Z,3.37
2023-02-25T06:10:47.458Z,3.37
2023-02-25T06:11:47.444Z,3.37
2023-02-25T06:12:47.450Z,3.34
2023-02-25T06:13:47.436Z,3.34
2023-02-25T06:14:47.408Z,3.37
2023-02-25T06:15:47.410Z,3.37
2023-02-25T06:16:47.435Z,3.37
2023-02-25T06:17:47.390Z,3.40
2023-02-25T06:18:47.382Z,3.37
2023-02-25T06:19:47.371Z,3.37
2023-02-25T06:20:47.396Z,3.37
2023-02-25T06:21:47.335Z,3.37
2023-02-25T06:22:47.326Z,3.36
2023-02-25T06:23:47.328Z,3.37
2023-02-25T06:24:47.308Z,3.36
2023-02-25T06:25:47.309Z,3.34
2023-02-25T06:26:47.290Z,3.32
2023-02-25T06:27:47.290Z,3.34
2023-02-25T06:28:47.276Z,3.32
2023-02-25T06:29:47.256Z,3.34
2023-02-25T06:30:47.266Z,3.34
2023-02-25T06:31:47.374Z,3.32
2023-02-25T06:32:47.260Z,3.32
2023-02-25T06:33:47.232Z,3.32
2023-02-25T06:34:47.197Z,3.31
2023-02-25T06:35:47.210Z,3.32
2023-02-25T06:36:47.184Z,3.34
2023-02-25T06:37:47.167Z,3.31
2023-02-25T06:38:47.171Z,3.34
2023-02-25T06:39:47.166Z,3.32
2023-02-25T06:40:47.125Z,3.36
2023-02-25T06:41:47.134Z,3.34
2023-02-25T06:42:47.116Z,3.36
2023-02-25T06:43:47.106Z,3.34
2023-02-25T06:44:47.078Z,3.34
2023-02-25T06:45:47.121Z,3.32
2023-02-25T06:46:47.046Z,3.34
2023-02-25T06:47:47.107Z,3.34
2023-02-25T06:48:47.034Z,3.36
2023-02-25T06:49:47.068Z,3.36
2023-02-25T06:50:47.017Z,3.37
2023-02-25T06:51:47.016Z,3.36
2023-02-25T06:52:46.989Z,3.26
2023-02-25T06:53:46.984Z,3.16
2023-02-25T06:54:46.985Z,3.07
2023-02-25T06:55:46.981Z,3.03
2023-02-25T06:56:46.970Z,3.00
2023-02-25T06:57:46.947Z,2.98
2023-02-25T06:58:46.940Z,2.98
2023-02-25T06:59:47.013Z,2.95
2023-02-25T07:00:47.171Z,2.97
2023-02-25T07:01:46.912Z,3.00
2023-02-25T07:02:46.899Z,3.01
2023-02-25T07:03:46.879Z,3.04
2023-02-25T07:04:46.930Z,3.08
2023-02-25T07:05:46.858Z,3.13
2023-02-25T07:06:46.829Z,3.16
2023-02-25T07:07:46.813Z,3.18
2023-02-25T07:08:46.865Z,3.18
2023-02-25T07:09:46.833Z,3.13
2023-02-25T07:10:46.794Z,3.13
2023-02-25T07:11:46.801Z,3.10
2023-02-25T07:12:46.784Z,3.11
2023-02-25T07:13:46.764Z,3.11
2023-02-25T07:14:46.760Z,3.08
2023-02-25T07:15:46.796Z,3.08
2023-02-25T07:16:46.730Z,3.07
2023-02-25T07:17:46.717Z,3.08
2023-02-25T07:18:46.716Z,3.08
2023-02-25T07:19:46.693Z,3.07
2023-02-25T07:20:46.692Z,3.07
2023-02-25T07:21:46.681Z,3.08
2023-02-25T07:22:46.701Z,3.08
2023-02-25T07:23:46.650Z,3.10
2023-02-25T07:24:46.729Z,3.11
2023-02-25T07:25:46.657Z,3.11
2023-02-25T07:26:46.613Z,3.13
2023-02-25T07:27:46.613Z,3.14
2023-02-25T07:28:46.596Z,3.16
2023-02-25T07:29:46.622Z,3.16
2023-02-25T07:30:46.780Z,3.19
2023-02-25T07:31:46.807Z,3.21
2023-02-25T07:32:46.649Z,3.23
2023-02-25T07:33:46.537Z,3.23
2023-02-25T07:34:46.521Z,3.23
2023-02-25T07:35:46.518Z,3.26
2023-02-25T07:36:46.507Z,3.28
2023-02-25T07:37:46.506Z,3.28
2023-02-25T07:38:46.476Z,3.29
2023-02-25T07:39:47.772Z,3.29
2023-02-25T07:40:46.463Z,3.31
2023-02-25T07:41:46.443Z,3.34
2023-02-25T07:42:46.415Z,3.37
2023-02-25T07:43:46.436Z,3.36
2023-02-25T07:44:46.467Z,3.34
2023-02-25T07:45:46.483Z,3.37
2023-02-25T07:46:46.406Z,3.40
2023-02-25T07:47:46.376Z,3.41
2023-02-25T07:48:46.517Z,3.40
2023-02-25T07:49:46.365Z,3.41
2023-02-25T07:50:46.358Z,3.44
2023-02-25T07:51:46.342Z,3.44
2023-02-25T07:52:46.354Z,3.41
2023-02-25T07:53:46.327Z,3.40
2023-02-25T07:54:46.295Z,3.41
2023-02-25T07:55:46.352Z,3.41
2023-02-25T07:56:46.280Z,3.40
2023-02-25T07:57:46.289Z,3.37
2023-02-25T07:58:46.266Z,3.37
2023-02-25T07:59:46.309Z,3.40
2023-02-25T08:00:46.269Z,3.40
2023-02-25T08:01:46.254Z,3.42
2023-02-25T08:02:46.240Z,3.41
2023-02-25T08:03:46.209Z,3.42
2023-02-25T08:04:46.276Z,3.42
2023-02-25T08:05:46.180Z,3.44
2023-02-25T08:06:46.189Z,3.47
2023-02-25T08:07:46.167Z,3.48
2023-02-25T08:08:46.141Z,3.51
2023-02-25T08:09:46.139Z,3.51
2023-02-25T08:10:46.163Z,3.53
2023-02-25T08:11:46.118Z,3.51
2023-02-25T08:12:46.086Z,3.55
2023-02-25T08:13:46.095Z,3.56
2023-02-25T08:14:46.074Z,3.58
2023-02-25T08:15:46.094Z,3.58
2023-02-25T08:16:46.078Z,3.56
2023-02-25T08:17:46.087Z,3.58
2023-02-25T08:18:46.039Z,3.60
2023-02-25T08:19:46.026Z,3.62
2023-02-25T08:20:46.008Z,3.59
2023-02-25T08:21:46.012Z,3.56
2023-02-25T08:22:46.012Z,3.58
2023-02-25T08:23:45.975Z,3.59
2023-02-25T08:24:45.967Z,3.62
2023-02-25T08:25:45.964Z,3.62
2023-02-25T08:26:45.944Z,3.65
2023-02-25T08:27:45.955Z,3.65
2023-02-25T08:28:45.948Z,3.63
2023-02-25T08:29:45.915Z,3.62
2023-02-25T08:30:45.938Z,3.63
2023-02-25T08:31:46.115Z,3.66
2023-02-25T08:32:46.083Z,3.68
2023-02-25T08:33:45.865Z,3.68
2023-02-25T08:34:48.678Z,3.66
2023-02-25T08:35:45.844Z,3.66
2023-02-25T08:36:45.839Z,3.65
2023-02-25T08:37:45.881Z,3.65
2023-02-25T08:38:45.825Z,3.65
2023-02-25T08:39:45.903Z,3.65
2023-02-25T08:40:45.798Z,3.62
2023-02-25T08:41:45.795Z,3.63
2023-02-25T08:42:45.774Z,3.65
2023-02-25T08:43:45.746Z,3.66
2023-02-25T08:44:45.736Z,3.66
2023-02-25T08:45:45.770Z,3.68
2023-02-25T08:46:45.737Z,3.66
2023-02-25T08:47:45.705Z,3.66
2023-02-25T08:48:45.695Z,3.65
2023-02-25T08:49:45.688Z,3.65
2023-02-25T08:50:45.698Z,3.66
2023-02-25T08:51:45.666Z,3.66
2023-02-25T08:52:45.646Z,3.68
2023-02-25T08:53:45.630Z,3.68
2023-02-25T08:54:45.640Z,3.69
2023-02-25T08:55:45.633Z,3.73
2023-02-25T08:56:45.694Z,3.73
2023-02-25T08:57:45.601Z,3.76
2023-02-25T08:58:45.569Z,3.78
2023-02-25T08:59:45.573Z,3.81
2023-02-25T09:00:45.614Z,3.81
2023-02-25T09:01:45.792Z,3.81
2023-02-25T09:02:45.530Z,3.84
2023-02-25T09:03:45.530Z,3.86
2023-02-25T09:04:45.578Z,3.88
2023-02-25T09:05:45.501Z,3.92
2023-02-25T09:06:45.508Z,3.94
2023-02-25T09:07:45.490Z,3.95
2023-02-25T09:08:45.460Z,3.94
2023-02-25T09:09:45.484Z,3.91
2023-02-25T09:10:50.677Z,3.88
2023-02-25T09:11:46.576Z,3.84
2023-02-25T09:12:45.441Z,3.86
2023-02-25T09:13:45.421Z,3.91
2023-02-25T09:14:45.396Z,3.94
2023-02-25T09:15:45.431Z,3.96
2023-02-25T09:16:45.592Z,3.96
2023-02-25T09:17:45.370Z,3.98
2023-02-25T09:18:45.367Z,4.04
2023-02-25T09:19:45.349Z,4.08
2023-02-25T09:20:45.343Z,4.10
2023-02-25T09:21:45.339Z,4.08
2023-02-25T09:22:45.369Z,4.08
2023-02-25T09:23:45.302Z,4.08
2023-02-25T09:24:45.291Z,4.13
2023-02-25T09:25:45.268Z,4.14
2023-02-25T09:26:45.284Z,4.13
2023-02-25T09:27:45.283Z,4.10
2023-02-25T09:28:45.251Z,4.13
2023-02-25T09:29:45.259Z,4.16
2023-02-25T09:30:45.248Z,4.22
2023-02-25T09:31:45.426Z,4.28
2023-02-25T09:32:45.283Z,4.32
2023-02-25T09:33:45.208Z,4.32
2023-02-25T09:34:45.187Z,4.32
2023-02-25T09:35:45.211Z,4.31
2023-02-25T09:36:45.185Z,4.31
2023-02-25T09:37:45.140Z,4.30
2023-02-25T09:38:45.151Z,4.26
2023-02-25T09:39:45.142Z,4.24
2023-02-25T09:40:45.121Z,4.28
2023-02-25T09:41:45.107Z,4.30
2023-02-25T09:42:45.097Z,4.28
2023-02-25T09:43:45.081Z,4.30
2023-02-25T09:44:45.104Z,4.28
2023-02-25T09:45:45.116Z,4.31
2023-02-25T09:46:45.305Z,4.32
2023-02-25T09:47:45.074Z,4.30
2023-02-25T09:48:46.308Z,4.28
2023-02-25T09:49:45.019Z,4.26
2023-02-25T09:50:45.034Z,4.26
2023-02-25T09:51:44.991Z,4.26
2023-02-25T09:52:45.016Z,4.24
2023-02-25T09:53:44.981Z,4.20
2023-02-25T09:54:44.995Z,4.19
2023-02-25T09:55:44.942Z,4.19
2023-02-25T09:56:44.953Z,4.17
2023-02-25T09:57:44.923Z,4.17
2023-02-25T09:58:44.925Z,4.17
2023-02-25T09:59:44.923Z,4.16
2023-02-25T10:00:44.913Z,4.14
2023-02-25T10:01:44.884Z,4.14
2023-02-25T10:02:44.998Z,4.12
2023-02-25T10:03:44.876Z,4.13
2023-02-25T10:04:44.852Z,4.17
2023-02-25T10:05:44.876Z,4.20
2023-02-25T10:06:44.826Z,4.20
2023-02-25T10:07:44.814Z,4.20
2023-02-25T10:08:44.814Z,4.20
2023-02-25T10:09:44.796Z,4.22
2023-02-25T10:10:44.805Z,4.28
2023-02-25T10:11:44.813Z,4.24
2023-02-25T10:12:44.764Z,4.26
2023-02-25T10:13:44.750Z,4.26
2023-02-25T10:14:44.751Z,4.26
2023-02-25T10:15:52.173Z,4.31
2023-02-25T10:16:45.753Z,4.35
2023-02-25T10:17:44.721Z,4.40
2023-02-25T10:18:44.707Z,4.41
2023-02-25T10:19:44.686Z,4.40
2023-02-25T10:20:44.677Z,4.41
2023-02-25T10:21:44.694Z,4.38
2023-02-25T10:22:44.659Z,4.38
2023-02-25T10:23:44.652Z,4.35
2023-02-25T10:24:44.646Z,4.37
2023-02-25T10:25:44.617Z,4.35
2023-02-25T10:26:44.628Z,4.35
2023-02-25T10:27:44.593Z,4.45
2023-02-25T10:28:44.590Z,4.55
2023-02-25T10:29:44.564Z,4.62
2023-02-25T10:30:44.611Z,4.68
2023-02-25T10:31:44.732Z,4.70
2023-02-25T10:32:44.631Z,4.71
2023-02-25T10:33:44.527Z,4.67
2023-02-25T10:34:44.512Z,4.63
2023-02-25T10:35:44.495Z,4.75
2023-02-25T10:36:44.542Z,4.89
2023-02-25T10:37:44.507Z,5.04
2023-02-25T10:38:44.480Z,5.18
2023-02-25T10:39:44.459Z,5.20
2023-02-25T10:40:44.454Z,5.17
2023-02-25T10:41:44.434Z,5.11
2023-02-25T10:42:44.462Z,5.10
2023-02-25T10:43:44.436Z,5.10
2023-02-25T10:44:44.403Z,5.07
2023-02-25T10:45:44.431Z,5.05
2023-02-25T10:46:44.424Z,5.00
2023-02-25T10:47:44.367Z,4.94
2023-02-25T10:48:44.374Z,4.89
2023-02-25T10:49:44.342Z,4.89
2023-02-25T10:50:46.201Z,4.84
2023-02-25T10:51:44.343Z,4.84
2023-02-25T10:52:44.327Z,4.87
2023-02-25T10:53:44.304Z,4.89
2023-02-25T10:54:44.317Z,4.90
2023-02-25T10:55:44.289Z,4.89
2023-02-25T10:56:44.403Z,4.86
2023-02-25T10:57:44.253Z,4.77
2023-02-25T10:58:44.282Z,4.74
2023-02-25T10:59:44.232Z,4.70
2023-02-25T11:00:44.260Z,4.67
2023-02-25T11:01:44.276Z,4.67
2023-02-25T11:02:44.297Z,4.67
2023-02-25T11:03:44.182Z,4.71
2023-02-25T11:04:44.193Z,4.67
2023-02-25T11:05:44.193Z,4.66
2023-02-25T11:06:44.186Z,4.66
2023-02-25T11:07:44.142Z,4.63
2023-02-25T11:08:44.153Z,4.58
2023-02-25T11:09:44.125Z,4.56
2023-02-25T11:10:44.122Z,4.56
2023-02-25T11:11:44.276Z,4.53
2023-02-25T11:12:44.114Z,4.50
2023-02-25T11:13:44.110Z,4.49
2023-02-25T11:14:44.077Z,4.48
2023-02-25T11:15:46.210Z,4.45
2023-02-25T11:16:44.200Z,4.44
2023-02-25T11:17:44.046Z,4.44
2023-02-25T11:18:44.176Z,4.38
2023-02-25T11:19:44.016Z,4.34
2023-02-25T11:20:44.011Z,4.34
2023-02-25T11:21:43.991Z,4.35
2023-02-25T11:22:44.002Z,4.42
2023-02-25T11:23:43.992Z,4.53
2023-02-25T11:24:43.977Z,4.71
2023-02-25T11:25:43.977Z,4.92
2023-02-25T11:26:43.959Z,5.12
2023-02-25T11:27:43.935Z,5.25
2023-02-25T11:28:43.928Z,5.28
2023-02-25T11:29:43.902Z,5.23
2023-02-25T11:30:43.964Z,5.17
2023-02-25T11:31:44.168Z,5.08
2023-02-25T11:32:43.893Z,5.00
2023-02-25T11:33:43.867Z,4.93
2023-02-25T11:34:43.856Z,4.92
2023-02-25T11:35:43.832Z,4.93
2023-02-25T11:36:43.836Z,4.96
2023-02-25T11:37:45.571Z,5.04
2023-02-25T11:38:43.818Z,5.10
2023-02-25T11:39:43.790Z,5.29
2023-02-25T11:40:43.782Z,5.41
2023-02-25T11:41:43.792Z,5.50
2023-02-25T11:42:43.769Z,5.57
2023-02-25T11:43:43.790Z,5.64
2023-02-25T11:44:43.738Z,5.72
2023-02-25T11:45:43.722Z,5.69
2023-02-25T11:46:43.752Z,5.69
2023-02-25T11:47:43.726Z,5.64
2023-02-25T11:48:43.701Z,5.51
2023-02-25T11:49:43.700Z,5.39
2023-02-25T11:50:43.690Z,5.29
2023-02-25T11:51:43.689Z,5.29
2023-02-25T11:52:43.668Z,5.41
2023-02-25T11:53:43.687Z,5.51
2023-02-25T11:54:43.632Z,5.57
2023-02-25T11:55:43.609Z,5.68
2023-02-25T11:56:43.622Z,5.69
2023-02-25T11:57:43.657Z,5.65
2023-02-25T11:58:43.588Z,5.59
2023-02-25T11:59:43.580Z,5.44
2023-02-25T12:00:43.557Z,5.32
2023-02-25T12:01:43.548Z,5.30
2023-02-25T12:02:43.769Z,5.32
2023-02-25T12:03:43.538Z,5.36
2023-02-25T12:04:43.522Z,5.50
2023-02-25T12:05:43.582Z,5.64
2023-02-25T12:06:43.499Z,5.73
2023-02-25T12:07:55.465Z,5.80
2023-02-25T12:08:44.471Z,5.86
2023-02-25T12:09:43.596Z,5.84
2023-02-25T12:10:43.467Z,5.73
2023-02-25T12:11:43.439Z,5.72
2023-02-25T12:12:43.427Z,5.71
2023-02-25T12:13:43.417Z,5.73
2023-02-25T12:14:43.419Z,5.75
2023-02-25T12:15:43.375Z,5.82
2023-02-25T12:16:44.493Z,5.86
2023-02-25T12:17:43.364Z,5.86
2023-02-25T12:18:43.368Z,5.87
2023-02-25T12:19:43.348Z,5.90
2023-02-25T12:20:43.340Z,5.89
2023-02-25T12:21:43.320Z,5.84
2023-02-25T12:22:43.311Z,5.91
2023-02-25T12:23:43.297Z,5.98
2023-02-25T12:24:43.311Z,6.01
2023-02-25T12:25:43.293Z,6.12
2023-02-25T12:26:43.276Z,6.12
2023-02-25T12:27:43.252Z,6.11
2023-02-25T12:28:43.249Z,6.07
2023-02-25T12:29:43.300Z,6.09
2023-02-25T12:30:43.238Z,6.16
2023-02-25T12:31:43.323Z,6.27
2023-02-25T12:32:43.204Z,6.38
2023-02-25T12:33:43.190Z,6.41
2023-02-25T12:34:43.180Z,6.41
2023-02-25T12:35:43.193Z,6.38
2023-02-25T12:36:43.168Z,6.45
2023-02-25T12:37:43.185Z,6.69
2023-02-25T12:38:43.138Z,6.88
2023-02-25T12:39:43.117Z,6.95
2023-02-25T12:40:43.121Z,6.95
2023-02-25T12:41:43.119Z,6.79
2023-02-25T12:42:43.100Z,6.60
2023-02-25T12:43:43.069Z,6.48
2023-02-25T12:44:43.067Z,6.35
2023-02-25T12:45:43.094Z,6.28
2023-02-25T12:46:43.048Z,6.17
2023-02-25T12:47:43.031Z,6.05
2023-02-25T12:48:43.019Z,5.99
2023-02-25T12:49:43.027Z,5.94
2023-02-25T12:50:43.009Z,5.87
2023-02-25T12:51:43.030Z,5.82
2023-02-25T12:52:42.990Z,5.73
2023-02-25T12:53:42.958Z,5.72
2023-02-25T12:54:42.971Z,5.75
2023-02-25T12:55:42.941Z,5.73
2023-02-25T12:56:42.937Z,5.69
2023-02-25T12:57:42.938Z,5.68
2023-02-25T12:58:42.937Z,5.65
2023-02-25T12:59:42.903Z,5.64
2023-02-25T13:00:42.949Z,5.66
2023-02-25T13:01:42.869Z,5.69
2023-02-25T13:02:42.868Z,5.71
2023-02-25T13:03:42.918Z,5.62
2023-02-25T13:04:42.863Z,5.46
2023-02-25T13:05:42.825Z,5.28
2023-02-25T13:06:42.838Z,5.15
2023-02-25T13:07:42.874Z,5.08
2023-02-25T13:08:42.798Z,5.11
2023-02-25T13:09:42.790Z,5.23
2023-02-25T13:10:42.815Z,5.41
2023-02-25T13:12:10.002Z,5.47
2023-02-25T13:12:43.769Z,5.51
2023-02-25T13:13:42.749Z,5.57
2023-02-25T13:14:42.734Z,5.61
2023-02-25T13:15:42.720Z,5.64
2023-02-25T13:16:42.780Z,5.69
2023-02-25T13:17:42.733Z,5.59
2023-02-25T13:18:42.689Z,5.56